Ashton-under-Lyne, United Kingdom
Current Conditions -  °F | °C
As of 9:50 AM on Tuesday 21 Oct 2014 (Local Time) from EGCC Reporting Station
Rain Showers Rain Showers  
Wind Chill: 42°   Ceiling: Unl
Heat Index: 48°   Visibility: 4mi
Dew Point: 45°   Wind: 18mph
Humidity: 87%   Direction: 290°WNW
Pressure: 29.5"   Gusts: 31mph
Location:  53.49°N, 2.1°W
Report Text: EGCC 210850Z 29016G27KT 7000 VCSH FEW020 FEW026CB SCT032 09/07 Q0999 RESHRA TEMPO SHRA
Loading
Personal Weather Stations






























Interactive Weather Map New forecast layout! Learn more

10-Day Weather Forecast

Advertisements
Track Severe Weather on mobile